sensor_id;sensor_type;location;lat;lon;timestamp;temperature;humidity
9209;DHT22;4639;48.862;9.188;2024-01-30T00:01:15;5.20;99.90
9209;DHT22;4639;48.862;9.188;2024-01-30T00:03:40;5.20;99.90
9209;DHT22;4639;48.862;9.188;2024-01-30T00:06:07;5.20;99.90
9209;DHT22;4639;48.862;9.188;2024-01-30T00:08:33;5.20;99.90
9209;DHT22;4639;48.862;9.188;2024-01-30T00:10:59;5.20;99.90
9209;DHT22;4639;48.862;9.188;2024-01-30T00:13:24;5.20;99.90
9209;DHT22;4639;48.862;9.188;2024-01-30T00:15:50;5.20;99.90
9209;DHT22;4639;48.862;9.188;2024-01-30T00:18:15;5.30;99.90
9209;DHT22;4639;48.862;9.188;2024-01-30T00:20:41;5.30;99.90
9209;DHT22;4639;48.862;9.188;2024-01-30T00:23:08;5.20;99.90
9209;DHT22;4639;48.862;9.188;2024-01-30T00:25:33;5.20;99.90
9209;DHT22;4639;48.862;9.188;2024-01-30T00:27:59;5.20;99.90
9209;DHT22;4639;48.862;9.188;2024-01-30T00:30:25;5.20;99.90
9209;DHT22;4639;48.862;9.188;2024-01-30T00:32:50;5.20;99.90
9209;DHT22;4639;48.862;9.188;2024-01-30T00:35:16;5.20;99.90
9209;DHT22;4639;48.862;9.188;2024-01-30T00:37:41;5.20;99.90
9209;DHT22;4639;48.862;9.188;2024-01-30T00:40:07;5.10;99.90
9209;DHT22;4639;48.862;9.188;2024-01-30T00:42:35;5.10;99.90
9209;DHT22;4639;48.862;9.188;2024-01-30T00:45:01;5.10;99.90
9209;DHT22;4639;48.862;9.188;2024-01-30T00:47:27;5.10;99.90
9209;DHT22;4639;48.862;9.188;2024-01-30T00:49:54;5.20;99.90
9209;DHT22;4639;48.862;9.188;2024-01-30T00:52:20;5.20;99.90
9209;DHT22;4639;48.862;9.188;2024-01-30T00:54:45;5.20;99.90
9209;DHT22;4639;48.862;9.188;2024-01-30T00:57:11;5.10;99.90
9209;DHT22;4639;48.862;9.188;2024-01-30T00:59:36;5.20;99.90
9209;DHT22;4639;48.862;9.188;2024-01-30T01:02:05;5.20;99.90
9209;DHT22;4639;48.862;9.188;2024-01-30T01:04:30;5.20;99.90
9209;DHT22;4639;48.862;9.188;2024-01-30T01:06:56;5.10;99.90
9209;DHT22;4639;48.862;9.188;2024-01-30T01:09:21;5.10;99.90
9209;DHT22;4639;48.862;9.188;2024-01-30T01:11:47;5.10;99.90
9209;DHT22;4639;48.862;9.188;2024-01-30T01:14:13;5.00;99.90
9209;DHT22;4639;48.862;9.188;2024-01-30T01:16:38;5.00;99.90
9209;DHT22;4639;48.862;9.188;2024-01-30T01:19:04;5.00;99.90
9209;DHT22;4639;48.862;9.188;2024-01-30T01:21:29;5.00;99.90
9209;DHT22;4639;48.862;9.188;2024-01-30T01:23:55;4.90;99.90
9209;DHT22;4639;48.862;9.188;2024-01-30T01:26:21;4.90;99.90
9209;DHT22;4639;48.862;9.188;2024-01-30T01:28:47;4.90;99.90
9209;DHT22;4639;48.862;9.188;2024-01-30T01:31:12;4.80;99.90
9209;DHT22;4639;48.862;9.188;2024-01-30T01:33:38;4.80;99.90
9209;DHT22;4639;48.862;9.188;2024-01-30T01:36:03;4.70;99.90
9209;DHT22;4639;48.862;9.188;2024-01-30T01:38:29;4.60;99.90
9209;DHT22;4639;48.862;9.188;2024-01-30T01:40:55;4.60;99.90
9209;DHT22;4639;48.862;9.188;2024-01-30T01:43:20;4.60;99.90
9209;DHT22;4639;48.862;9.188;2024-01-30T01:45:46;4.50;99.90
9209;DHT22;4639;48.862;9.188;2024-01-30T01:48:12;4.50;99.90
9209;DHT22;4639;48.862;9.188;2024-01-30T01:50:38;4.50;99.90
9209;DHT22;4639;48.862;9.188;2024-01-30T01:53:07;4.50;99.90
9209;DHT22;4639;48.862;9.188;2024-01-30T01:55:33;4.50;99.90
9209;DHT22;4639;48.862;9.188;2024-01-30T01:58:00;4.50;99.90
9209;DHT22;4639;48.862;9.188;2024-01-30T02:00:26;4.60;99.90
9209;DHT22;4639;48.862;9.188;2024-01-30T02:02:53;4.60;99.90
9209;DHT22;4639;48.862;9.188;2024-01-30T02:05:20;4.60;99.90
9209;DHT22;4639;48.862;9.188;2024-01-30T02:07:46;4.50;99.90
9209;DHT22;4639;48.862;9.188;2024-01-30T02:10:12;4.50;99.90
9209;DHT22;4639;48.862;9.188;2024-01-30T02:12:38;4.60;99.90
9209;DHT22;4639;48.862;9.188;2024-01-30T02:15:04;4.60;99.90
9209;DHT22;4639;48.862;9.188;2024-01-30T02:17:30;4.50;99.90
9209;DHT22;4639;48.862;9.188;2024-01-30T02:19:56;4.60;99.90
9209;DHT22;4639;48.862;9.188;2024-01-30T02:22:22;4.60;99.90
9209;DHT22;4639;48.862;9.188;2024-01-30T02:24:49;4.60;99.90
9209;DHT22;4639;48.862;9.188;2024-01-30T02:27:14;4.60;99.90
9209;DHT22;4639;48.862;9.188;2024-01-30T02:29:40;4.60;99.90
9209;DHT22;4639;48.862;9.188;2024-01-30T02:32:06;4.70;99.90
9209;DHT22;4639;48.862;9.188;2024-01-30T02:34:33;4.70;99.90
9209;DHT22;4639;48.862;9.188;2024-01-30T02:36:58;4.60;99.90
9209;DHT22;4639;48.862;9.188;2024-01-30T02:39:24;4.60;99.90
9209;DHT22;4639;48.862;9.188;2024-01-30T02:41:50;4.50;99.90
9209;DHT22;4639;48.862;9.188;2024-01-30T02:44:15;4.50;99.90
9209;DHT22;4639;48.862;9.188;2024-01-30T02:46:41;4.50;99.90
9209;DHT22;4639;48.862;9.188;2024-01-30T02:49:07;4.60;99.90
9209;DHT22;4639;48.862;9.188;2024-01-30T02:51:32;4.50;99.90
9209;DHT22;4639;48.862;9.188;2024-01-30T02:53:58;4.50;99.90
9209;DHT22;4639;48.862;9.188;2024-01-30T02:56:23;4.40;99.90
9209;DHT22;4639;48.862;9.188;2024-01-30T02:58:49;4.50;99.90
9209;DHT22;4639;48.862;9.188;2024-01-30T03:01:14;4.50;99.90
9209;DHT22;4639;48.862;9.188;2024-01-30T03:03:40;4.50;99.90
9209;DHT22;4639;48.862;9.188;2024-01-30T03:06:06;4.50;99.90
9209;DHT22;4639;48.862;9.188;2024-01-30T03:08:32;4.60;99.90
9209;DHT22;4639;48.862;9.188;2024-01-30T03:11:00;4.50;99.90
9209;DHT22;4639;48.862;9.188;2024-01-30T03:13:25;4.60;99.90
9209;DHT22;4639;48.862;9.188;2024-01-30T03:15:51;4.60;99.90
9209;DHT22;4639;48.862;9.188;2024-01-30T03:18:17;4.50;99.90
9209;DHT22;4639;48.862;9.188;2024-01-30T03:20:43;4.60;99.90
9209;DHT22;4639;48.862;9.188;2024-01-30T03:23:09;4.60;99.90
9209;DHT22;4639;48.862;9.188;2024-01-30T03:25:34;4.60;99.90
9209;DHT22;4639;48.862;9.188;2024-01-30T03:28:00;4.60;99.90
9209;DHT22;4639;48.862;9.188;2024-01-30T03:30:25;4.60;99.90
9209;DHT22;4639;48.862;9.188;2024-01-30T03:32:51;4.60;99.90
9209;DHT22;4639;48.862;9.188;2024-01-30T03:35:16;4.60;99.90
9209;DHT22;4639;48.862;9.188;2024-01-30T03:37:42;4.60;99.90
9209;DHT22;4639;48.862;9.188;2024-01-30T03:40:08;4.50;99.90
9209;DHT22;4639;48.862;9.188;2024-01-30T03:42:33;4.50;99.90
9209;DHT22;4639;48.862;9.188;2024-01-30T03:44:59;4.50;99.90
9209;DHT22;4639;48.862;9.188;2024-01-30T03:47:25;4.50;99.90
9209;DHT22;4639;48.862;9.188;2024-01-30T03:49:50;4.40;99.90
9209;DHT22;4639;48.862;9.188;2024-01-30T03:52:17;4.40;99.90
9209;DHT22;4639;48.862;9.188;2024-01-30T03:54:42;4.40;99.90
9209;DHT22;4639;48.862;9.188;2024-01-30T03:57:08;4.40;99.90
9209;DHT22;4639;48.862;9.188;2024-01-30T03:59:33;4.40;99.90
9209;DHT22;4639;48.862;9.188;2024-01-30T04:01:59;4.40;99.90
9209;DHT22;4639;48.862;9.188;2024-01-30T04:04:25;4.40;99.90
9209;DHT22;4639;48.862;9.188;2024-01-30T04:06:51;4.30;99.90
9209;DHT22;4639;48.862;9.188;2024-01-30T04:09:16;4.30;99.90
9209;DHT22;4639;48.862;9.188;2024-01-30T04:11:42;4.30;99.90
9209;DHT22;4639;48.862;9.188;2024-01-30T04:14:08;4.30;99.90
9209;DHT22;4639;48.862;9.188;2024-01-30T04:16:34;4.30;99.90
9209;DHT22;4639;48.862;9.188;2024-01-30T04:18:59;4.20;99.90
9209;DHT22;4639;48.862;9.188;2024-01-30T04:21:25;4.20;99.90
9209;DHT22;4639;48.862;9.188;2024-01-30T04:23:51;4.10;99.90
9209;DHT22;4639;48.862;9.188;2024-01-30T04:26:17;4.20;99.90
9209;DHT22;4639;48.862;9.188;2024-01-30T04:28:46;4.10;99.90
9209;DHT22;4639;48.862;9.188;2024-01-30T04:31:12;4.10;99.90
9209;DHT22;4639;48.862;9.188;2024-01-30T04:33:37;4.10;99.90
9209;DHT22;4639;48.862;9.188;2024-01-30T04:36:03;4.00;99.90
9209;DHT22;4639;48.862;9.188;2024-01-30T04:38:30;4.00;99.90
9209;DHT22;4639;48.862;9.188;2024-01-30T04:40:55;3.90;99.90
9209;DHT22;4639;48.862;9.188;2024-01-30T04:43:21;3.90;99.90
9209;DHT22;4639;48.862;9.188;2024-01-30T04:45:47;3.80;99.90
9209;DHT22;4639;48.862;9.188;2024-01-30T04:48:12;3.90;99.90
9209;DHT22;4639;48.862;9.188;2024-01-30T04:50:39;3.80;99.90
9209;DHT22;4639;48.862;9.188;2024-01-30T04:53:04;3.90;99.90
9209;DHT22;4639;48.862;9.188;2024-01-30T04:55:30;3.90;99.90
9209;DHT22;4639;48.862;9.188;2024-01-30T04:57:55;4.00;99.90
9209;DHT22;4639;48.862;9.188;2024-01-30T05:00:21;4.00;99.90
9209;DHT22;4639;48.862;9.188;2024-01-30T05:02:46;4.00;99.90
9209;DHT22;4639;48.862;9.188;2024-01-30T05:05:12;3.90;99.90
9209;DHT22;4639;48.862;9.188;2024-01-30T05:07:40;3.90;99.90
9209;DHT22;4639;48.862;9.188;2024-01-30T05:10:06;3.90;99.90
9209;DHT22;4639;48.862;9.188;2024-01-30T05:12:32;4.00;99.90
9209;DHT22;4639;48.862;9.188;2024-01-30T05:14:57;3.90;99.90
9209;DHT22;4639;48.862;9.188;2024-01-30T05:17:23;4.00;99.90
9209;DHT22;4639;48.862;9.188;2024-01-30T05:19:48;3.90;99.90
9209;DHT22;4639;48.862;9.188;2024-01-30T05:22:14;3.90;99.90
9209;DHT22;4639;48.862;9.188;2024-01-30T05:24:41;3.90;99.90
9209;DHT22;4639;48.862;9.188;2024-01-30T05:27:07;3.90;99.90
9209;DHT22;4639;48.862;9.188;2024-01-30T05:29:33;3.90;99.90
9209;DHT22;4639;48.862;9.188;2024-01-30T05:31:59;3.90;99.90
9209;DHT22;4639;48.862;9.188;2024-01-30T05:34:24;3.90;99.90
9209;DHT22;4639;48.862;9.188;2024-01-30T05:36:50;3.90;99.90
9209;DHT22;4639;48.862;9.188;2024-01-30T05:39:15;3.90;99.90
9209;DHT22;4639;48.862;9.188;2024-01-30T05:41:41;3.90;99.90
9209;DHT22;4639;48.862;9.188;2024-01-30T05:44:06;3.90;99.90
9209;DHT22;4639;48.862;9.188;2024-01-30T05:46:33;4.00;99.90
9209;DHT22;4639;48.862;9.188;2024-01-30T05:48:58;4.00;99.90
9209;DHT22;4639;48.862;9.188;2024-01-30T05:51:24;3.90;99.90
9209;DHT22;4639;48.862;9.188;2024-01-30T05:53:49;4.00;99.90
9209;DHT22;4639;48.862;9.188;2024-01-30T05:56:15;4.00;99.90
9209;DHT22;4639;48.862;9.188;2024-01-30T05:58:41;4.00;99.90
9209;DHT22;4639;48.862;9.188;2024-01-30T06:01:08;4.10;99.90
9209;DHT22;4639;48.862;9.188;2024-01-30T06:03:34;4.20;99.90
9209;DHT22;4639;48.862;9.188;2024-01-30T06:05:59;4.20;99.90
9209;DHT22;4639;48.862;9.188;2024-01-30T06:08:25;4.20;99.90
9209;DHT22;4639;48.862;9.188;2024-01-30T06:10:50;4.10;99.90
9209;DHT22;4639;48.862;9.188;2024-01-30T06:13:16;4.10;99.90
9209;DHT22;4639;48.862;9.188;2024-01-30T06:15:41;4.10;99.90
9209;DHT22;4639;48.862;9.188;2024-01-30T06:18:07;4.10;99.90
9209;DHT22;4639;48.862;9.188;2024-01-30T06:20:33;4.10;99.90
9209;DHT22;4639;48.862;9.188;2024-01-30T06:22:58;4.10;99.90
9209;DHT22;4639;48.862;9.188;2024-01-30T06:25:24;4.10;99.90
9209;DHT22;4639;48.862;9.188;2024-01-30T06:27:49;4.00;99.90
9209;DHT22;4639;48.862;9.188;2024-01-30T06:30:15;4.10;99.90
9209;DHT22;4639;48.862;9.188;2024-01-30T06:32:40;4.00;99.90
9209;DHT22;4639;48.862;9.188;2024-01-30T06:35:06;4.00;99.90
9209;DHT22;4639;48.862;9.188;2024-01-30T06:37:32;3.90;99.90
9209;DHT22;4639;48.862;9.188;2024-01-30T06:39:58;3.90;99.90
9209;DHT22;4639;48.862;9.188;2024-01-30T06:42:24;3.90;99.90
9209;DHT22;4639;48.862;9.188;2024-01-30T06:44:49;3.90;99.90
9209;DHT22;4639;48.862;9.188;2024-01-30T06:47:15;3.90;99.90
9209;DHT22;4639;48.862;9.188;2024-01-30T06:49:41;3.90;99.90
9209;DHT22;4639;48.862;9.188;2024-01-30T06:52:07;3.90;99.90
9209;DHT22;4639;48.862;9.188;2024-01-30T06:54:33;3.90;99.90
9209;DHT22;4639;48.862;9.188;2024-01-30T06:56:59;3.90;99.90
9209;DHT22;4639;48.862;9.188;2024-01-30T06:59:25;3.90;99.90
9209;DHT22;4639;48.862;9.188;2024-01-30T07:01:51;3.90;99.90
9209;DHT22;4639;48.862;9.188;2024-01-30T07:04:16;3.90;99.90
9209;DHT22;4639;48.862;9.188;2024-01-30T07:06:43;3.90;99.90
9209;DHT22;4639;48.862;9.188;2024-01-30T07:09:09;3.90;99.90
9209;DHT22;4639;48.862;9.188;2024-01-30T07:11:34;3.90;99.90
9209;DHT22;4639;48.862;9.188;2024-01-30T07:14:00;3.90;99.90
9209;DHT22;4639;48.862;9.188;2024-01-30T07:16:29;3.90;99.90
9209;DHT22;4639;48.862;9.188;2024-01-30T07:18:54;3.90;99.90
9209;DHT22;4639;48.862;9.188;2024-01-30T07:21:20;3.90;99.90
9209;DHT22;4639;48.862;9.188;2024-01-30T07:23:47;3.90;99.90
9209;DHT22;4639;48.862;9.188;2024-01-30T07:26:12;4.00;99.90
9209;DHT22;4639;48.862;9.188;2024-01-30T07:28:38;4.00;99.90
9209;DHT22;4639;48.862;9.188;2024-01-30T07:31:04;4.00;99.90
9209;DHT22;4639;48.862;9.188;2024-01-30T07:33:29;4.00;99.90
9209;DHT22;4639;48.862;9.188;2024-01-30T07:35:55;4.10;99.90
9209;DHT22;4639;48.862;9.188;2024-01-30T07:38:20;4.20;99.90
9209;DHT22;4639;48.862;9.188;2024-01-30T07:40:46;4.20;99.90
9209;DHT22;4639;48.862;9.188;2024-01-30T07:43:12;4.30;99.90
9209;DHT22;4639;48.862;9.188;2024-01-30T07:45:38;4.30;99.90
9209;DHT22;4639;48.862;9.188;2024-01-30T07:48:05;4.20;99.90
9209;DHT22;4639;48.862;9.188;2024-01-30T07:50:31;4.20;99.90
9209;DHT22;4639;48.862;9.188;2024-01-30T07:52:59;4.20;99.90
9209;DHT22;4639;48.862;9.188;2024-01-30T07:55:24;4.20;99.90
9209;DHT22;4639;48.862;9.188;2024-01-30T07:57:53;4.20;99.90
9209;DHT22;4639;48.862;9.188;2024-01-30T08:00:21;4.20;99.90
9209;DHT22;4639;48.862;9.188;2024-01-30T08:02:47;4.20;99.90
9209;DHT22;4639;48.862;9.188;2024-01-30T08:05:13;4.20;99.90
9209;DHT22;4639;48.862;9.188;2024-01-30T08:07:41;4.30;99.90
9209;DHT22;4639;48.862;9.188;2024-01-30T08:10:08;4.40;99.90
9209;DHT22;4639;48.862;9.188;2024-01-30T08:12:41;4.40;99.90
9209;DHT22;4639;48.862;9.188;2024-01-30T08:15:07;4.70;99.90
9209;DHT22;4639;48.862;9.188;2024-01-30T08:17:33;4.90;99.90
9209;DHT22;4639;48.862;9.188;2024-01-30T08:19:59;4.90;99.90
9209;DHT22;4639;48.862;9.188;2024-01-30T08:22:25;5.10;99.90
9209;DHT22;4639;48.862;9.188;2024-01-30T08:24:51;5.20;99.90
9209;DHT22;4639;48.862;9.188;2024-01-30T08:27:17;5.30;99.90
9209;DHT22;4639;48.862;9.188;2024-01-30T08:29:43;5.40;99.90
9209;DHT22;4639;48.862;9.188;2024-01-30T08:32:09;5.60;99.90
9209;DHT22;4639;48.862;9.188;2024-01-30T08:34:34;5.80;99.90
9209;DHT22;4639;48.862;9.188;2024-01-30T08:37:00;5.90;99.90
9209;DHT22;4639;48.862;9.188;2024-01-30T08:39:26;6.10;99.90
9209;DHT22;4639;48.862;9.188;2024-01-30T08:41:52;6.20;99.90
9209;DHT22;4639;48.862;9.188;2024-01-30T08:44:18;6.40;99.90
9209;DHT22;4639;48.862;9.188;2024-01-30T08:46:45;6.70;99.90
9209;DHT22;4639;48.862;9.188;2024-01-30T08:49:12;7.00;99.90
9209;DHT22;4639;48.862;9.188;2024-01-30T08:51:43;7.30;99.90
9209;DHT22;4639;48.862;9.188;2024-01-30T08:54:09;7.50;99.90
9209;DHT22;4639;48.862;9.188;2024-01-30T08:56:34;7.70;99.90
9209;DHT22;4639;48.862;9.188;2024-01-30T08:59:03;7.70;99.90
9209;DHT22;4639;48.862;9.188;2024-01-30T09:01:38;7.80;99.90
9209;DHT22;4639;48.862;9.188;2024-01-30T09:04:04;7.70;99.90
9209;DHT22;4639;48.862;9.188;2024-01-30T09:06:30;7.70;99.90
9209;DHT22;4639;48.862;9.188;2024-01-30T09:08:56;7.70;99.90
9209;DHT22;4639;48.862;9.188;2024-01-30T09:11:23;7.60;99.90
9209;DHT22;4639;48.862;9.188;2024-01-30T09:13:49;7.60;99.90
9209;DHT22;4639;48.862;9.188;2024-01-30T09:16:18;7.60;99.90
9209;DHT22;4639;48.862;9.188;2024-01-30T09:18:54;7.50;99.90
9209;DHT22;4639;48.862;9.188;2024-01-30T09:21:23;7.60;99.90
9209;DHT22;4639;48.862;9.188;2024-01-30T09:24:32;7.70;99.90
9209;DHT22;4639;48.862;9.188;2024-01-30T09:26:48;7.80;99.90
9209;DHT22;4639;48.862;9.188;2024-01-30T09:29:13;7.90;99.90
9209;DHT22;4639;48.862;9.188;2024-01-30T09:31:39;7.90;99.90
9209;DHT22;4639;48.862;9.188;2024-01-30T09:34:05;7.90;99.90
9209;DHT22;4639;48.862;9.188;2024-01-30T09:36:32;8.00;99.90
9209;DHT22;4639;48.862;9.188;2024-01-30T09:39:00;8.30;99.90
9209;DHT22;4639;48.862;9.188;2024-01-30T09:41:27;8.50;99.90
9209;DHT22;4639;48.862;9.188;2024-01-30T09:43:56;8.70;99.90
9209;DHT22;4639;48.862;9.188;2024-01-30T09:46:26;8.70;99.90
9209;DHT22;4639;48.862;9.188;2024-01-30T09:48:54;8.50;99.90
9209;DHT22;4639;48.862;9.188;2024-01-30T09:51:21;8.40;99.90
9209;DHT22;4639;48.862;9.188;2024-01-30T09:53:48;8.40;99.90
9209;DHT22;4639;48.862;9.188;2024-01-30T09:56:14;8.40;99.90
9209;DHT22;4639;48.862;9.188;2024-01-30T09:58:40;8.40;99.90
9209;DHT22;4639;48.862;9.188;2024-01-30T10:01:06;8.40;99.90
9209;DHT22;4639;48.862;9.188;2024-01-30T10:03:32;8.60;99.90
9209;DHT22;4639;48.862;9.188;2024-01-30T10:05:57;8.90;99.90
9209;DHT22;4639;48.862;9.188;2024-01-30T10:08:23;9.20;99.90
9209;DHT22;4639;48.862;9.188;2024-01-30T10:10:50;9.60;99.90
9209;DHT22;4639;48.862;9.188;2024-01-30T10:13:16;9.80;99.90
9209;DHT22;4639;48.862;9.188;2024-01-30T10:15:41;9.70;99.90
9209;DHT22;4639;48.862;9.188;2024-01-30T10:18:08;9.40;99.90
9209;DHT22;4639;48.862;9.188;2024-01-30T10:20:35;9.20;99.90
9209;DHT22;4639;48.862;9.188;2024-01-30T10:23:01;9.00;99.90
9209;DHT22;4639;48.862;9.188;2024-01-30T10:25:27;8.90;99.90
9209;DHT22;4639;48.862;9.188;2024-01-30T10:27:53;9.00;99.90
9209;DHT22;4639;48.862;9.188;2024-01-30T10:30:23;9.00;99.90
9209;DHT22;4639;48.862;9.188;2024-01-30T10:32:49;8.90;99.90
9209;DHT22;4639;48.862;9.188;2024-01-30T10:35:15;8.70;99.90
9209;DHT22;4639;48.862;9.188;2024-01-30T10:37:43;8.80;99.90
9209;DHT22;4639;48.862;9.188;2024-01-30T10:40:11;8.80;99.90
9209;DHT22;4639;48.862;9.188;2024-01-30T10:42:43;8.80;99.90
9209;DHT22;4639;48.862;9.188;2024-01-30T10:45:11;8.90;99.90
9209;DHT22;4639;48.862;9.188;2024-01-30T10:47:49;8.90;99.90
9209;DHT22;4639;48.862;9.188;2024-01-30T10:50:15;9.00;99.90
9209;DHT22;4639;48.862;9.188;2024-01-30T10:52:42;9.00;99.90
9209;DHT22;4639;48.862;9.188;2024-01-30T10:55:08;9.00;99.90
9209;DHT22;4639;48.862;9.188;2024-01-30T10:57:37;9.10;99.90
9209;DHT22;4639;48.862;9.188;2024-01-30T11:00:06;9.20;99.90
9209;DHT22;4639;48.862;9.188;2024-01-30T11:02:37;9.20;99.90
9209;DHT22;4639;48.862;9.188;2024-01-30T11:05:05;9.30;99.90
9209;DHT22;4639;48.862;9.188;2024-01-30T11:07:31;9.30;99.90
9209;DHT22;4639;48.862;9.188;2024-01-30T11:12:29;9.60;99.90
9209;DHT22;4639;48.862;9.188;2024-01-30T11:15:11;9.80;99.90
9209;DHT22;4639;48.862;9.188;2024-01-30T11:20:22;10.00;99.90
9209;DHT22;4639;48.862;9.188;2024-01-30T11:22:55;10.00;99.90
9209;DHT22;4639;48.862;9.188;2024-01-30T11:25:22;10.10;99.90
9209;DHT22;4639;48.862;9.188;2024-01-30T11:27:50;10.30;99.90
9209;DHT22;4639;48.862;9.188;2024-01-30T11:30:28;10.40;99.90
9209;DHT22;4639;48.862;9.188;2024-01-30T11:33:05;10.40;99.90
9209;DHT22;4639;48.862;9.188;2024-01-30T11:35:44;10.30;99.90
9209;DHT22;4639;48.862;9.188;2024-01-30T11:38:11;10.30;99.90
9209;DHT22;4639;48.862;9.188;2024-01-30T11:40:39;10.40;99.90
9209;DHT22;4639;48.862;9.188;2024-01-30T11:43:07;10.50;99.90
9209;DHT22;4639;48.862;9.188;2024-01-30T11:45:33;10.60;99.90
9209;DHT22;4639;48.862;9.188;2024-01-30T11:47:59;10.70;99.90
9209;DHT22;4639;48.862;9.188;2024-01-30T11:50:27;10.70;99.90
9209;DHT22;4639;48.862;9.188;2024-01-30T11:52:54;10.70;99.90
9209;DHT22;4639;48.862;9.188;2024-01-30T11:55:20;10.80;99.90
9209;DHT22;4639;48.862;9.188;2024-01-30T11:57:45;10.90;99.90
9209;DHT22;4639;48.862;9.188;2024-01-30T12:00:15;10.90;99.90
9209;DHT22;4639;48.862;9.188;2024-01-30T12:02:48;11.00;99.90
9209;DHT22;4639;48.862;9.188;2024-01-30T12:05:14;11.00;99.90
9209;DHT22;4639;48.862;9.188;2024-01-30T12:07:40;11.10;99.90
9209;DHT22;4639;48.862;9.188;2024-01-30T12:10:09;11.20;99.90
9209;DHT22;4639;48.862;9.188;2024-01-30T12:12:35;11.20;99.90
9209;DHT22;4639;48.862;9.188;2024-01-30T12:15:01;11.20;99.90
9209;DHT22;4639;48.862;9.188;2024-01-30T12:17:31;11.20;99.90
9209;DHT22;4639;48.862;9.188;2024-01-30T12:20:13;11.30;99.90
9209;DHT22;4639;48.862;9.188;2024-01-30T12:22:47;11.30;99.90
9209;DHT22;4639;48.862;9.188;2024-01-30T12:25:13;11.40;99.90
9209;DHT22;4639;48.862;9.188;2024-01-30T12:27:41;11.30;99.90
9209;DHT22;4639;48.862;9.188;2024-01-30T12:30:08;11.50;99.90
9209;DHT22;4639;48.862;9.188;2024-01-30T12:32:40;11.60;99.90
9209;DHT22;4639;48.862;9.188;2024-01-30T12:35:11;11.70;99.90
9209;DHT22;4639;48.862;9.188;2024-01-30T12:37:37;11.80;99.90
9209;DHT22;4639;48.862;9.188;2024-01-30T12:40:04;11.90;99.90
9209;DHT22;4639;48.862;9.188;2024-01-30T12:42:29;11.80;99.90
9209;DHT22;4639;48.862;9.188;2024-01-30T12:44:57;11.80;99.90
9209;DHT22;4639;48.862;9.188;2024-01-30T12:47:24;11.90;99.90
9209;DHT22;4639;48.862;9.188;2024-01-30T12:49:49;12.00;99.90
9209;DHT22;4639;48.862;9.188;2024-01-30T12:52:19;12.10;99.90
9209;DHT22;4639;48.862;9.188;2024-01-30T12:54:45;12.30;99.90
9209;DHT22;4639;48.862;9.188;2024-01-30T12:57:10;12.40;99.90
9209;DHT22;4639;48.862;9.188;2024-01-30T12:59:36;12.50;99.90
9209;DHT22;4639;48.862;9.188;2024-01-30T13:02:01;12.90;99.90
9209;DHT22;4639;48.862;9.188;2024-01-30T13:04:29;13.20;99.90
9209;DHT22;4639;48.862;9.188;2024-01-30T13:06:55;13.70;99.90
9209;DHT22;4639;48.862;9.188;2024-01-30T13:09:21;13.70;99.90
9209;DHT22;4639;48.862;9.188;2024-01-30T13:11:46;13.80;99.90
9209;DHT22;4639;48.862;9.188;2024-01-30T13:14:12;14.00;99.90
9209;DHT22;4639;48.862;9.188;2024-01-30T13:16:38;14.10;99.90
9209;DHT22;4639;48.862;9.188;2024-01-30T13:19:04;14.30;99.90
9209;DHT22;4639;48.862;9.188;2024-01-30T13:21:29;14.30;99.90
9209;DHT22;4639;48.862;9.188;2024-01-30T13:23:55;14.40;99.90
9209;DHT22;4639;48.862;9.188;2024-01-30T13:26:21;14.50;99.90
9209;DHT22;4639;48.862;9.188;2024-01-30T13:28:47;14.50;99.90
9209;DHT22;4639;48.862;9.188;2024-01-30T13:31:14;14.40;99.90
9209;DHT22;4639;48.862;9.188;2024-01-30T13:33:42;14.40;99.90
9209;DHT22;4639;48.862;9.188;2024-01-30T13:36:10;14.30;99.90
9209;DHT22;4639;48.862;9.188;2024-01-30T13:38:37;14.10;99.90
9209;DHT22;4639;48.862;9.188;2024-01-30T13:41:04;14.00;99.90
9209;DHT22;4639;48.862;9.188;2024-01-30T13:43:31;14.00;99.90
9209;DHT22;4639;48.862;9.188;2024-01-30T13:45:57;14.00;99.90
9209;DHT22;4639;48.862;9.188;2024-01-30T13:48:23;14.10;99.90
9209;DHT22;4639;48.862;9.188;2024-01-30T13:50:48;14.20;99.90
9209;DHT22;4639;48.862;9.188;2024-01-30T13:53:14;14.10;99.90
9209;DHT22;4639;48.862;9.188;2024-01-30T13:55:40;14.10;99.90
9209;DHT22;4639;48.862;9.188;2024-01-30T13:58:07;14.00;99.90
9209;DHT22;4639;48.862;9.188;2024-01-30T14:00:34;14.00;99.90
9209;DHT22;4639;48.862;9.188;2024-01-30T14:03:00;13.90;99.90
9209;DHT22;4639;48.862;9.188;2024-01-30T14:05:26;13.80;99.90
9209;DHT22;4639;48.862;9.188;2024-01-30T14:07:53;13.70;99.90
9209;DHT22;4639;48.862;9.188;2024-01-30T14:10:19;13.60;99.90
9209;DHT22;4639;48.862;9.188;2024-01-30T14:12:45;13.50;99.90
9209;DHT22;4639;48.862;9.188;2024-01-30T14:15:13;13.40;99.90
9209;DHT22;4639;48.862;9.188;2024-01-30T14:17:47;13.50;99.90
9209;DHT22;4639;48.862;9.188;2024-01-30T14:20:15;13.40;99.90
9209;DHT22;4639;48.862;9.188;2024-01-30T14:22:44;13.30;99.90
9209;DHT22;4639;48.862;9.188;2024-01-30T14:25:09;13.10;99.90
9209;DHT22;4639;48.862;9.188;2024-01-30T14:27:36;13.00;99.90
9209;DHT22;4639;48.862;9.188;2024-01-30T14:30:02;12.90;99.90
9209;DHT22;4639;48.862;9.188;2024-01-30T14:32:28;12.70;99.90
9209;DHT22;4639;48.862;9.188;2024-01-30T14:34:54;12.70;99.90
9209;DHT22;4639;48.862;9.188;2024-01-30T14:37:20;12.70;99.90
9209;DHT22;4639;48.862;9.188;2024-01-30T14:39:47;12.60;99.90
9209;DHT22;4639;48.862;9.188;2024-01-30T14:42:13;12.60;99.90
9209;DHT22;4639;48.862;9.188;2024-01-30T14:44:39;12.70;99.90
9209;DHT22;4639;48.862;9.188;2024-01-30T14:47:05;12.70;99.90
9209;DHT22;4639;48.862;9.188;2024-01-30T14:49:31;12.70;99.90
9209;DHT22;4639;48.862;9.188;2024-01-30T14:51:57;12.70;99.90
9209;DHT22;4639;48.862;9.188;2024-01-30T14:54:24;12.70;99.90
9209;DHT22;4639;48.862;9.188;2024-01-30T14:56:49;12.80;99.90
9209;DHT22;4639;48.862;9.188;2024-01-30T14:59:16;12.70;99.90
9209;DHT22;4639;48.862;9.188;2024-01-30T15:01:41;12.70;99.90
9209;DHT22;4639;48.862;9.188;2024-01-30T15:04:07;12.60;99.90
9209;DHT22;4639;48.862;9.188;2024-01-30T15:06:33;12.70;99.90
9209;DHT22;4639;48.862;9.188;2024-01-30T15:08:59;12.60;99.90
9209;DHT22;4639;48.862;9.188;2024-01-30T15:11:24;12.60;99.90
9209;DHT22;4639;48.862;9.188;2024-01-30T15:13:50;12.60;99.90
9209;DHT22;4639;48.862;9.188;2024-01-30T15:16:15;12.60;99.90
9209;DHT22;4639;48.862;9.188;2024-01-30T15:18:41;12.50;99.90
9209;DHT22;4639;48.862;9.188;2024-01-30T15:21:06;12.50;99.90
9209;DHT22;4639;48.862;9.188;2024-01-30T15:23:32;12.40;99.90
9209;DHT22;4639;48.862;9.188;2024-01-30T15:25:58;12.30;99.90
9209;DHT22;4639;48.862;9.188;2024-01-30T15:28:37;12.30;99.90
9209;DHT22;4639;48.862;9.188;2024-01-30T15:31:05;12.40;99.90
9209;DHT22;4639;48.862;9.188;2024-01-30T15:33:30;12.30;99.90
9209;DHT22;4639;48.862;9.188;2024-01-30T15:35:57;12.30;99.90
9209;DHT22;4639;48.862;9.188;2024-01-30T15:38:22;12.20;99.90
9209;DHT22;4639;48.862;9.188;2024-01-30T15:40:48;12.20;99.90
9209;DHT22;4639;48.862;9.188;2024-01-30T15:43:14;12.20;99.90
9209;DHT22;4639;48.862;9.188;2024-01-30T15:45:39;12.10;99.90
9209;DHT22;4639;48.862;9.188;2024-01-30T15:48:05;12.30;99.90
9209;DHT22;4639;48.862;9.188;2024-01-30T15:50:31;12.00;99.90
9209;DHT22;4639;48.862;9.188;2024-01-30T15:52:57;12.00;99.90
9209;DHT22;4639;48.862;9.188;2024-01-30T15:55:22;11.90;99.90
9209;DHT22;4639;48.862;9.188;2024-01-30T15:57:48;11.80;99.90
9209;DHT22;4639;48.862;9.188;2024-01-30T16:00:15;11.80;99.90
9209;DHT22;4639;48.862;9.188;2024-01-30T16:02:41;11.70;99.90
9209;DHT22;4639;48.862;9.188;2024-01-30T16:05:07;11.60;99.90
9209;DHT22;4639;48.862;9.188;2024-01-30T16:07:34;11.60;99.90
9209;DHT22;4639;48.862;9.188;2024-01-30T16:10:00;11.50;99.90
9209;DHT22;4639;48.862;9.188;2024-01-30T16:12:25;11.50;99.90